Terminal Aerodrome Forecast
Issued by NWS

Home | Current Version | Previous Version | Text Only | Print | Product List | Glossary On
Versions: 1 2 3 4 5 6 7 8 9 10 11 12 13 14 15 16 17 18 19 20 21 22 23 24 25 26
000
FTUS43 KDVN 051000 AAA
TAFCID
TAF AMD
KCID 051000Z 0510/0606 14007KT 4SM -RA BR BKN005
     FM051300 15006KT 5SM BR VCSH OVC015
     FM051500 19007KT P6SM BKN025
     FM051800 21010KT P6SM VCSH SCT040 BKN100
     FM052300 11007KT P6SM BKN120=

USA.gov is the U.S. government's official web portal to all federal, state and local government web resources and services.